createdAt,value
2024-04-06T00:00:46.971Z,0
2024-04-06T00:01:46.940Z,0
2024-04-06T00:02:46.971Z,0
2024-04-06T00:03:53.506Z,0
2024-04-06T00:04:46.943Z,0
2024-04-06T00:05:46.951Z,0
2024-04-06T00:06:46.977Z,0
2024-04-06T00:07:46.954Z,0
2024-04-06T00:08:46.977Z,0
2024-04-06T00:09:46.957Z,0
2024-04-06T00:10:46.940Z,0
2024-04-06T00:11:46.973Z,0
2024-04-06T00:12:46.993Z,0
2024-04-06T00:13:46.939Z,0
2024-04-06T00:14:46.972Z,0
2024-04-06T00:15:46.975Z,0
2024-04-06T00:16:46.973Z,0
2024-04-06T00:17:47.806Z,0
2024-04-06T00:18:46.948Z,0
2024-04-06T00:19:46.977Z,0
2024-04-06T00:20:46.970Z,0
2024-04-06T00:21:46.949Z,0
2024-04-06T00:22:46.976Z,0
2024-04-06T00:23:46.951Z,0
2024-04-06T00:24:46.994Z,0
2024-04-06T00:25:46.945Z,0
2024-04-06T00:26:46.980Z,0
2024-04-06T00:27:46.946Z,0
2024-04-06T00:28:46.987Z,0
2024-04-06T00:29:46.934Z,0
2024-04-06T00:30:46.942Z,0
2024-04-06T00:31:46.970Z,0
2024-04-06T00:32:46.980Z,0
2024-04-06T00:33:46.970Z,0
2024-04-06T00:34:46.968Z,0
2024-04-06T00:35:46.999Z,0
2024-04-06T00:36:46.973Z,0
2024-04-06T00:37:46.966Z,0
2024-04-06T00:38:46.980Z,0
2024-04-06T00:39:46.942Z,0
2024-04-06T00:40:46.980Z,0
2024-04-06T00:41:46.940Z,0
2024-04-06T00:42:46.979Z,0
2024-04-06T00:43:46.965Z,0
2024-04-06T00:44:46.962Z,0
2024-04-06T00:45:46.943Z,0
2024-04-06T00:46:46.937Z,0
2024-04-06T00:47:46.910Z,0
2024-04-06T00:48:46.938Z,0
2024-04-06T00:49:46.985Z,0
2024-04-06T00:50:46.944Z,0
2024-04-06T00:51:46.960Z,0
2024-04-06T00:52:46.975Z,0
2024-04-06T00:53:46.976Z,0
2024-04-06T00:54:46.989Z,0
2024-04-06T00:55:46.980Z,0
2024-04-06T00:56:46.966Z,0
2024-04-06T00:57:47.001Z,0
2024-04-06T00:58:46.967Z,0
2024-04-06T00:59:46.945Z,0
2024-04-06T01:00:46.991Z,0
2024-04-06T01:02:00.348Z,0
2024-04-06T01:02:46.918Z,0
2024-04-06T01:03:46.956Z,0
2024-04-06T01:04:46.953Z,0
2024-04-06T01:05:46.956Z,0
2024-04-06T01:06:46.949Z,0
2024-04-06T01:07:46.957Z,0
2024-04-06T01:08:46.974Z,0
2024-04-06T01:09:47.007Z,0
2024-04-06T01:10:46.981Z,0
2024-04-06T01:11:46.931Z,0
2024-04-06T01:12:46.978Z,0
2024-04-06T01:13:46.971Z,0
2024-04-06T01:14:46.958Z,0
2024-04-06T01:15:46.957Z,0
2024-04-06T01:16:46.977Z,0
2024-04-06T01:17:46.942Z,0
2024-04-06T01:18:46.909Z,0
2024-04-06T01:19:46.976Z,0
2024-04-06T01:20:47.004Z,0
2024-04-06T01:21:46.951Z,0
2024-04-06T01:22:46.975Z,0
2024-04-06T01:23:46.977Z,0
2024-04-06T01:24:46.966Z,0
2024-04-06T01:25:46.990Z,0
2024-04-06T01:26:46.966Z,0
2024-04-06T01:27:46.947Z,0
2024-04-06T01:28:46.942Z,0
2024-04-06T01:29:46.979Z,0
2024-04-06T01:30:46.991Z,0
2024-04-06T01:31:46.978Z,0
2024-04-06T01:32:46.963Z,0
2024-04-06T01:33:46.987Z,0
2024-04-06T01:34:46.976Z,0
2024-04-06T01:35:46.940Z,0
2024-04-06T01:36:46.954Z,0
2024-04-06T01:37:46.942Z,0
2024-04-06T01:38:46.985Z,0
2024-04-06T01:39:46.994Z,0
2024-04-06T01:40:46.975Z,0
2024-04-06T01:41:46.960Z,0
2024-04-06T01:42:46.945Z,0
2024-04-06T01:43:46.956Z,0
2024-04-06T01:44:46.969Z,0
2024-04-06T01:45:46.971Z,0
2024-04-06T01:46:46.960Z,0
2024-04-06T01:47:46.981Z,0
2024-04-06T01:48:46.979Z,0
2024-04-06T01:49:46.977Z,0
2024-04-06T01:50:46.956Z,0
2024-04-06T01:51:46.957Z,0
2024-04-06T01:52:46.976Z,0
2024-04-06T01:53:46.974Z,0
2024-04-06T01:54:46.972Z,0
2024-04-06T01:55:46.976Z,0
2024-04-06T01:56:46.980Z,0
2024-04-06T01:57:46.952Z,0
2024-04-06T01:58:46.978Z,0
2024-04-06T01:59:46.971Z,0
2024-04-06T02:00:46.989Z,0
2024-04-06T02:01:46.955Z,0
2024-04-06T02:02:50.294Z,0
2024-04-06T02:03:46.970Z,0
2024-04-06T02:04:46.969Z,0
2024-04-06T02:05:46.956Z,0
2024-04-06T02:06:46.982Z,0
2024-04-06T02:07:46.959Z,0
2024-04-06T02:08:46.953Z,0
2024-04-06T02:09:46.951Z,0
2024-04-06T02:10:46.945Z,0
2024-04-06T02:11:46.975Z,0
2024-04-06T02:12:46.971Z,0
2024-04-06T02:13:46.974Z,0
2024-04-06T02:14:46.942Z,0
2024-04-06T02:15:46.965Z,0
2024-04-06T02:16:46.951Z,0
2024-04-06T02:17:46.969Z,0
2024-04-06T02:18:46.977Z,0
2024-04-06T02:19:46.945Z,0
2024-04-06T02:20:46.979Z,0
2024-04-06T02:21:46.973Z,0
2024-04-06T02:22:46.947Z,0
2024-04-06T02:23:46.969Z,0
2024-04-06T02:24:46.944Z,0
2024-04-06T02:25:46.943Z,0
2024-04-06T02:26:46.978Z,0
2024-04-06T02:27:46.951Z,0
2024-04-06T02:28:46.938Z,0
2024-04-06T02:29:46.966Z,0
2024-04-06T02:30:46.961Z,0
2024-04-06T02:31:46.973Z,0
2024-04-06T02:32:46.904Z,0
2024-04-06T02:33:46.981Z,0
2024-04-06T02:34:46.978Z,0
2024-04-06T02:35:46.980Z,0
2024-04-06T02:36:46.957Z,0
2024-04-06T02:37:46.960Z,0
2024-04-06T02:38:46.916Z,0
2024-04-06T02:39:46.943Z,0
2024-04-06T02:40:46.975Z,0
2024-04-06T02:41:46.954Z,0
2024-04-06T02:42:46.960Z,0
2024-04-06T02:43:46.977Z,0
2024-04-06T02:44:46.954Z,0
2024-04-06T02:45:46.963Z,0
2024-04-06T02:46:46.975Z,0
2024-04-06T02:47:46.977Z,0
2024-04-06T02:48:46.973Z,0
2024-04-06T02:49:46.977Z,0
2024-04-06T02:50:46.956Z,0
2024-04-06T02:51:46.974Z,0
2024-04-06T02:52:46.964Z,0
2024-04-06T02:53:46.972Z,0
2024-04-06T02:54:46.963Z,0
2024-04-06T02:55:46.983Z,0
2024-04-06T02:56:46.971Z,0
2024-04-06T02:57:46.978Z,0
2024-04-06T02:58:46.956Z,0
2024-04-06T02:59:46.973Z,0
2024-04-06T03:00:46.984Z,0
2024-04-06T03:01:46.985Z,0
2024-04-06T03:02:46.942Z,0
2024-04-06T03:03:46.987Z,0
2024-04-06T03:04:46.978Z,0
2024-04-06T03:05:46.980Z,0
2024-04-06T03:06:46.982Z,0
2024-04-06T03:07:46.956Z,0
2024-04-06T03:08:46.981Z,0
2024-04-06T03:09:46.957Z,0
2024-04-06T03:10:46.975Z,0
2024-04-06T03:11:46.938Z,0
2024-04-06T03:12:46.964Z,0
2024-04-06T03:13:46.945Z,0
2024-04-06T03:14:46.962Z,0
2024-04-06T03:15:46.970Z,0
2024-04-06T03:16:46.941Z,0
2024-04-06T03:17:46.980Z,0
2024-04-06T03:18:46.956Z,0
2024-04-06T03:19:46.977Z,0
2024-04-06T03:20:46.981Z,0
2024-04-06T03:21:46.967Z,0
2024-04-06T03:22:46.976Z,0
2024-04-06T03:23:46.954Z,0
2024-04-06T03:24:46.976Z,0
2024-04-06T03:25:46.938Z,0
2024-04-06T03:26:46.960Z,0
2024-04-06T03:27:46.955Z,0
2024-04-06T03:28:46.936Z,0
2024-04-06T03:29:46.938Z,0
2024-04-06T03:30:46.976Z,0
2024-04-06T03:31:46.980Z,0
2024-04-06T03:32:46.960Z,0
2024-04-06T03:33:46.935Z,0
2024-04-06T03:34:46.950Z,0
2024-04-06T03:35:47.010Z,0
2024-04-06T03:36:46.990Z,0
2024-04-06T03:37:46.952Z,0
2024-04-06T03:38:46.923Z,0
2024-04-06T03:39:46.974Z,0
2024-04-06T03:40:46.936Z,0
2024-04-06T03:41:46.949Z,0
2024-04-06T03:42:46.959Z,0
2024-04-06T03:43:46.976Z,0
2024-04-06T03:44:46.962Z,0
2024-04-06T03:45:46.975Z,0
2024-04-06T03:46:46.937Z,0
2024-04-06T03:47:46.975Z,0
2024-04-06T03:48:46.956Z,0
2024-04-06T03:49:46.958Z,0
2024-04-06T03:50:46.954Z,0
2024-04-06T03:51:46.958Z,0
2024-04-06T03:52:46.999Z,0
2024-04-06T03:53:46.979Z,0
2024-04-06T03:54:46.983Z,0
2024-04-06T03:55:46.972Z,0
2024-04-06T03:56:46.937Z,0
2024-04-06T03:57:46.986Z,0
2024-04-06T03:58:46.972Z,0
2024-04-06T03:59:46.977Z,0
2024-04-06T04:00:46.954Z,0
2024-04-06T04:01:46.977Z,0
2024-04-06T04:02:46.960Z,0
2024-04-06T04:03:46.954Z,0
2024-04-06T04:04:46.937Z,0
2024-04-06T04:05:46.973Z,0
2024-04-06T04:06:46.952Z,0
2024-04-06T04:07:46.919Z,0
2024-04-06T04:08:46.980Z,0
2024-04-06T04:09:46.967Z,0
2024-04-06T04:10:46.952Z,0
2024-04-06T04:11:46.933Z,0
2024-04-06T04:12:46.965Z,0
2024-04-06T04:13:46.996Z,0
2024-04-06T04:14:46.951Z,0
2024-04-06T04:15:46.962Z,0
2024-04-06T04:16:46.969Z,0.1
2024-04-06T04:17:46.954Z,0.1
2024-04-06T04:18:46.971Z,0.1
2024-04-06T04:19:46.942Z,0.1
2024-04-06T04:20:46.982Z,0.1
2024-04-06T04:21:46.972Z,0.1
2024-04-06T04:22:46.955Z,0.1
2024-04-06T04:23:46.977Z,0.2
2024-04-06T04:24:46.977Z,0.2
2024-04-06T04:25:46.957Z,0.2
2024-04-06T04:26:46.947Z,0.2
2024-04-06T04:27:46.994Z,0.2
2024-04-06T04:28:46.939Z,0.3
2024-04-06T04:29:46.973Z,0.3
2024-04-06T04:30:46.918Z,0.3
2024-04-06T04:31:46.953Z,0.3
2024-04-06T04:32:46.978Z,0.4
2024-04-06T04:33:46.962Z,0.4
2024-04-06T04:34:46.972Z,0.4
2024-04-06T04:35:46.958Z,0.5
2024-04-06T04:36:46.947Z,0.5
2024-04-06T04:37:46.940Z,0.6
2024-04-06T04:38:46.955Z,0.7
2024-04-06T04:39:46.986Z,0.7
2024-04-06T04:40:46.962Z,0.8
2024-04-06T04:41:46.975Z,0.9
2024-04-06T04:42:46.983Z,0.9
2024-04-06T04:43:46.960Z,0.9
2024-04-06T04:44:53.243Z,0.9
2024-04-06T04:45:46.983Z,0.9
2024-04-06T04:46:46.978Z,0.9
2024-04-06T04:47:46.940Z,0.9
2024-04-06T04:48:46.994Z,0.9
2024-04-06T04:49:46.977Z,0.9
2024-04-06T04:50:46.973Z,0.9
2024-04-06T04:51:46.940Z,1
2024-04-06T04:52:46.924Z,1
2024-04-06T04:53:46.924Z,1
2024-04-06T04:54:46.966Z,1.1
2024-04-06T04:55:46.987Z,1.2
2024-04-06T04:56:46.983Z,1.2
2024-04-06T04:57:46.959Z,1.2
2024-04-06T04:58:46.943Z,1.2
2024-04-06T04:59:46.942Z,1.3
2024-04-06T05:00:46.995Z,1.3
2024-04-06T05:01:47.631Z,1.4
2024-04-06T05:02:46.985Z,1.5
2024-04-06T05:03:46.937Z,1.6
2024-04-06T05:04:46.980Z,1.7
2024-04-06T05:05:46.984Z,1.7
2024-04-06T05:06:46.966Z,1.8
2024-04-06T05:07:46.985Z,1.8
2024-04-06T05:08:46.962Z,1.9
2024-04-06T05:09:46.983Z,1.9
2024-04-06T05:10:46.995Z,2
2024-04-06T05:11:46.981Z,2
2024-04-06T05:12:46.985Z,2
2024-04-06T05:13:46.983Z,2.1
2024-04-06T05:14:46.939Z,2.1
2024-04-06T05:15:46.961Z,2.2
2024-04-06T05:16:46.960Z,2.3
2024-04-06T05:17:46.961Z,2.4
2024-04-06T05:18:46.976Z,2.6
2024-04-06T05:19:46.958Z,2.8
2024-04-06T05:20:46.987Z,2.9
2024-04-06T05:21:46.928Z,2.8
2024-04-06T05:22:46.988Z,2.8
2024-04-06T05:23:46.978Z,2.8
2024-04-06T05:24:46.982Z,2.9
2024-04-06T05:25:46.958Z,2.9
2024-04-06T05:26:46.958Z,2.9
2024-04-06T05:27:46.981Z,3
2024-04-06T05:28:46.962Z,3.1
2024-04-06T05:29:46.972Z,3.2
2024-04-06T05:30:46.982Z,3.3
2024-04-06T05:31:46.963Z,3.4
2024-04-06T05:32:46.972Z,3.6
2024-04-06T05:33:46.956Z,3.8
2024-04-06T05:34:46.959Z,4
2024-04-06T05:35:46.962Z,4.2
2024-04-06T05:36:46.948Z,4.4
2024-04-06T05:37:46.981Z,4.6
2024-04-06T05:38:46.959Z,4.8
2024-04-06T05:39:46.945Z,5
2024-04-06T05:40:46.975Z,5.1
2024-04-06T05:41:46.942Z,5.3
2024-04-06T05:42:46.973Z,5.4
2024-04-06T05:43:46.973Z,5.6
2024-04-06T05:44:46.954Z,5.8
2024-04-06T05:45:46.987Z,6.1
2024-04-06T05:46:46.965Z,6.4
2024-04-06T05:47:46.968Z,6.8
2024-04-06T05:48:46.968Z,7.4
2024-04-06T05:49:46.965Z,7.8
2024-04-06T05:50:47.001Z,8.6
2024-04-06T05:51:46.958Z,9.8
2024-04-06T05:52:46.956Z,18
2024-04-06T05:53:46.978Z,31.4
2024-04-06T05:54:46.979Z,30.9
2024-04-06T05:55:46.952Z,32.4
2024-04-06T05:56:46.958Z,32.9
2024-04-06T05:57:46.972Z,32.3
2024-04-06T05:58:46.963Z,30.6
2024-04-06T05:59:46.973Z,23
2024-04-06T06:00:46.951Z,13.4
2024-04-06T06:01:46.980Z,11.4
2024-04-06T06:02:46.939Z,11
2024-04-06T06:03:46.941Z,11
2024-04-06T06:04:46.999Z,11.1
2024-04-06T06:05:46.964Z,11
2024-04-06T06:06:46.960Z,11
2024-04-06T06:07:46.982Z,11
2024-04-06T06:08:46.960Z,11.1
2024-04-06T06:09:46.980Z,11.3
2024-04-06T06:10:46.960Z,11.5
2024-04-06T06:11:46.974Z,11.8
2024-04-06T06:12:46.945Z,12.1
2024-04-06T06:13:46.972Z,12.5
2024-04-06T06:14:46.973Z,13.1
2024-04-06T06:15:46.958Z,14.1
2024-04-06T06:16:46.975Z,16
2024-04-06T06:17:46.955Z,18.6
2024-04-06T06:18:46.986Z,29
2024-04-06T06:19:46.963Z,19.6
2024-04-06T06:20:46.976Z,20.2
2024-04-06T06:21:46.959Z,22.9
2024-04-06T06:22:46.953Z,28.2
2024-04-06T06:23:46.958Z,36
2024-04-06T06:24:46.928Z,29.4
2024-04-06T06:25:46.959Z,25.1
2024-04-06T06:26:46.983Z,25.6
2024-04-06T06:27:47.482Z,23.3
2024-04-06T06:28:46.960Z,22.3
2024-04-06T06:29:46.984Z,19.8
2024-04-06T06:30:46.957Z,18.2
2024-04-06T06:31:46.965Z,21.3
2024-04-06T06:32:46.979Z,19.4
2024-04-06T06:33:46.982Z,25.8
2024-04-06T06:34:46.962Z,29
2024-04-06T06:40:47.057Z,20.4
2024-04-06T06:41:46.970Z,24.8
2024-04-06T06:42:46.942Z,21.1
2024-04-06T06:43:46.975Z,23.2
2024-04-06T06:44:46.918Z,24.6
2024-04-06T06:45:46.982Z,41.5
2024-04-06T06:46:46.965Z,41.9
2024-04-06T06:47:46.984Z,31.8
2024-04-06T06:48:46.941Z,38.2
2024-04-06T06:49:46.961Z,46.7
2024-04-06T06:50:46.934Z,40.3
2024-04-06T06:51:46.979Z,47.4
2024-04-06T06:52:46.970Z,48
2024-04-06T06:53:46.964Z,53.6
2024-04-06T06:54:46.985Z,50.3
2024-04-06T06:55:46.984Z,40
2024-04-06T06:56:46.938Z,34.5
2024-04-06T06:57:46.961Z,28.2
2024-04-06T06:58:46.966Z,46.9
2024-04-06T07:00:47.026Z,27.6
2024-04-06T07:01:46.921Z,49.5
2024-04-06T07:02:46.945Z,43
2024-04-06T07:03:46.980Z,26.7
2024-04-06T07:04:46.967Z,31.3
2024-04-06T07:05:46.942Z,25.5
2024-04-06T07:07:46.971Z,30.3
2024-04-06T07:09:02.423Z,30.7
2024-04-06T07:09:46.980Z,27.5
2024-04-06T07:10:46.923Z,34.6
2024-04-06T07:11:46.975Z,30.1
2024-04-06T07:12:46.985Z,46.3
2024-04-06T07:13:46.960Z,46.1
2024-04-06T07:14:46.972Z,38.8
2024-04-06T07:15:46.987Z,41.3
2024-04-06T07:16:46.981Z,42
2024-04-06T07:17:46.963Z,33.1
2024-04-06T07:18:46.974Z,36.1
2024-04-06T07:19:46.940Z,46.8
2024-04-06T07:20:46.957Z,43.9
2024-04-06T07:21:46.980Z,47
2024-04-06T07:22:46.976Z,45.5
2024-04-06T07:23:46.967Z,44.4
2024-04-06T07:24:46.963Z,46.8
2024-04-06T07:25:47.622Z,53.4
2024-04-06T07:26:46.986Z,44.2
2024-04-06T07:27:46.982Z,55.2
2024-04-06T07:28:46.963Z,59.4
2024-04-06T07:29:46.962Z,52.6
2024-04-06T07:30:46.983Z,40.1
2024-04-06T07:31:46.989Z,30.1
2024-04-06T07:32:46.984Z,38.6
2024-04-06T07:33:46.960Z,50.1
2024-04-06T07:34:46.950Z,41.3
2024-04-06T07:35:46.989Z,37
2024-04-06T07:36:46.942Z,30.3
2024-04-06T07:37:46.940Z,40.2
2024-04-06T07:39:46.984Z,43.8
2024-04-06T07:40:46.990Z,47.6
2024-04-06T07:41:46.992Z,46.4
2024-04-06T07:42:46.960Z,54.1
2024-04-06T07:43:46.983Z,50.1
2024-04-06T07:44:46.991Z,51.4
2024-04-06T07:45:46.938Z,65.3
2024-04-06T07:46:46.984Z,69.1
2024-04-06T07:47:46.994Z,70.1
2024-04-06T07:48:46.974Z,71.8
2024-04-06T07:49:46.964Z,74.9
2024-04-06T07:50:46.936Z,75.1
2024-04-06T07:51:46.931Z,44.9
2024-04-06T07:52:46.982Z,66.1
2024-04-06T07:53:46.958Z,63.8
2024-04-06T07:54:46.949Z,64.6
2024-04-06T07:55:47.001Z,72
2024-04-06T07:56:46.984Z,73.3
2024-04-06T07:57:46.991Z,71.7
2024-04-06T07:58:46.959Z,62
2024-04-06T07:59:46.962Z,44.1
2024-04-06T08:00:46.938Z,52.7
2024-04-06T08:01:46.945Z,49.9
2024-04-06T08:02:46.966Z,39
2024-04-06T08:03:46.977Z,55.8
2024-04-06T08:04:46.940Z,63.7
2024-04-06T08:05:46.985Z,73
2024-04-06T08:06:46.964Z,44.4
2024-04-06T08:07:46.925Z,59.5
2024-04-06T08:08:46.968Z,69.3
2024-04-06T08:09:46.979Z,70.6
2024-04-06T08:10:46.937Z,50.2
2024-04-06T08:11:46.967Z,45.8
2024-04-06T08:12:46.991Z,67.9
2024-04-06T08:13:46.962Z,65.7
2024-04-06T08:14:46.941Z,67.4
2024-04-06T08:15:46.956Z,67.5
2024-04-06T08:16:46.981Z,64.2
2024-04-06T08:17:46.975Z,66.4
2024-04-06T08:18:46.960Z,66.5
2024-04-06T08:19:46.961Z,66
2024-04-06T08:20:46.974Z,66.5
2024-04-06T08:21:46.931Z,68.6
2024-04-06T08:22:46.980Z,67.8
2024-04-06T08:23:46.958Z,68.2
2024-04-06T08:24:46.938Z,69.1
2024-04-06T08:25:46.977Z,66.3
2024-04-06T08:26:46.939Z,63.6
2024-04-06T08:27:46.947Z,62.3
2024-04-06T08:28:46.974Z,57.8
2024-04-06T08:29:46.962Z,53.4
2024-04-06T08:30:46.975Z,49.2
2024-04-06T08:31:46.970Z,53.3
2024-04-06T08:32:46.980Z,45.9
2024-04-06T08:33:46.979Z,47
2024-04-06T08:34:46.980Z,46
2024-04-06T08:35:46.968Z,51.7
2024-04-06T08:36:46.984Z,58.9
2024-04-06T08:37:46.975Z,60.3
2024-04-06T08:38:46.960Z,58.5
2024-04-06T08:39:47.001Z,63.3
2024-04-06T08:40:46.980Z,61.9
2024-04-06T08:41:46.954Z,56.6
2024-04-06T08:42:46.956Z,55.7
2024-04-06T08:43:46.942Z,60.3
2024-04-06T08:44:46.973Z,37.3
2024-04-06T08:45:46.982Z,36.3
2024-04-06T08:46:46.978Z,30.2
2024-04-06T08:47:46.945Z,29.6
2024-04-06T08:48:46.993Z,25.8
2024-04-06T08:49:46.980Z,27.1
2024-04-06T08:50:46.944Z,39.3
2024-04-06T08:51:46.921Z,25
2024-04-06T08:52:46.956Z,22.4
2024-04-06T08:53:46.974Z,21.9
2024-04-06T08:54:46.982Z,22.5
2024-04-06T08:55:46.940Z,23.3
2024-04-06T08:56:46.987Z,24.2
2024-04-06T08:57:46.978Z,25.1
2024-04-06T08:58:46.974Z,25.5
2024-04-06T08:59:46.981Z,25.5
2024-04-06T09:00:46.962Z,25.7
2024-04-06T09:01:46.960Z,25.8
2024-04-06T09:02:46.982Z,25.9
2024-04-06T09:03:46.976Z,25.8
2024-04-06T09:04:46.978Z,25.1
2024-04-06T09:05:46.973Z,24
2024-04-06T09:06:46.980Z,22.9
2024-04-06T09:07:46.947Z,22.3
2024-04-06T09:08:46.960Z,22.1
2024-04-06T09:09:46.960Z,22.1
2024-04-06T09:10:46.965Z,22.6
2024-04-06T09:11:46.920Z,29.5
2024-04-06T09:12:46.980Z,24.8
2024-04-06T09:13:46.972Z,26.7
2024-04-06T09:14:46.989Z,25.5
2024-04-06T09:15:46.975Z,22.6
2024-04-06T09:16:46.983Z,21
2024-04-06T09:17:46.977Z,15.8
2024-04-06T09:18:46.989Z,19.9
2024-04-06T09:19:46.989Z,19.4
2024-04-06T09:20:46.962Z,19.5
2024-04-06T09:21:46.958Z,19.5
2024-04-06T09:22:46.969Z,19.5
2024-04-06T09:23:46.962Z,19.7
2024-04-06T09:24:46.936Z,20
2024-04-06T09:25:46.956Z,20.4
2024-04-06T09:26:46.996Z,19.9
2024-04-06T09:27:46.998Z,19.6
2024-04-06T09:28:46.990Z,19.7
2024-04-06T09:29:46.959Z,19.9
2024-04-06T09:30:46.966Z,20.8
2024-04-06T09:31:46.983Z,21.9
2024-04-06T09:32:46.986Z,23.8
2024-04-06T09:33:46.981Z,26.6
2024-04-06T09:34:46.941Z,33.4
2024-04-06T09:35:46.961Z,38.2
2024-04-06T09:36:46.982Z,37.9
2024-04-06T09:37:46.943Z,42.5
2024-04-06T09:38:46.989Z,37.4
2024-04-06T09:39:46.969Z,35.8
2024-04-06T09:40:47.000Z,30.2
2024-04-06T09:41:46.965Z,32.1
2024-04-06T09:42:46.983Z,33.5
2024-04-06T09:43:46.999Z,37.6
2024-04-06T09:44:46.958Z,34.2
2024-04-06T09:45:46.971Z,31.6
2024-04-06T09:46:46.939Z,29.4
2024-04-06T09:47:46.935Z,27.8
2024-04-06T09:48:46.948Z,26.4
2024-04-06T09:49:46.977Z,25.7
2024-04-06T09:50:46.975Z,25.8
2024-04-06T09:51:46.949Z,24.7
2024-04-06T09:52:46.967Z,23.9
2024-04-06T09:53:46.936Z,23.6
2024-04-06T09:54:46.972Z,23.6
2024-04-06T09:55:46.997Z,23.5
2024-04-06T09:56:46.984Z,23.5
2024-04-06T09:57:46.976Z,23.7
2024-04-06T09:58:46.950Z,23.9
2024-04-06T09:59:46.973Z,23.8
2024-04-06T10:00:46.985Z,24.2
2024-04-06T10:01:46.938Z,25.4
2024-04-06T10:02:46.952Z,26.9
2024-04-06T10:03:46.966Z,27.6
2024-04-06T10:04:46.969Z,33.8
2024-04-06T10:05:46.969Z,27.6
2024-04-06T10:06:46.927Z,27.4
2024-04-06T10:07:46.972Z,27.8
2024-04-06T10:08:46.939Z,27.3
2024-04-06T10:09:46.983Z,26.2
2024-04-06T10:10:46.933Z,27.7
2024-04-06T10:11:46.968Z,26.4
2024-04-06T10:12:46.957Z,29.4
2024-04-06T10:13:46.976Z,34.8
2024-04-06T10:14:46.978Z,42
2024-04-06T10:15:46.942Z,35
2024-04-06T10:16:46.953Z,29.7
2024-04-06T10:17:46.973Z,75.3
2024-04-06T10:18:46.975Z,46.9
2024-04-06T10:19:46.974Z,70.2
2024-04-06T10:20:46.958Z,68
2024-04-06T10:21:46.970Z,66.8
2024-04-06T10:22:46.932Z,66.8
2024-04-06T10:23:46.979Z,56.5
2024-04-06T10:24:46.971Z,68.3
2024-04-06T10:25:46.975Z,60
2024-04-06T10:26:46.972Z,69.9
2024-04-06T10:27:46.923Z,53
2024-04-06T10:28:46.964Z,39.9
2024-04-06T10:29:46.954Z,55.2
2024-04-06T10:30:46.967Z,59.6
2024-04-06T10:31:47.852Z,54.5
2024-04-06T10:32:46.949Z,54.7
2024-04-06T10:33:46.939Z,51.9
2024-04-06T10:34:50.891Z,50.1
2024-04-06T10:35:46.978Z,48.9
2024-04-06T10:36:46.985Z,48.4
2024-04-06T10:37:46.961Z,47.9
2024-04-06T10:38:46.955Z,47.6
2024-04-06T10:39:46.981Z,47.5
2024-04-06T10:40:46.977Z,46.3
2024-04-06T10:41:46.956Z,45.5
2024-04-06T10:42:46.940Z,46
2024-04-06T10:43:46.935Z,45.5
2024-04-06T10:44:46.974Z,45
2024-04-06T10:45:46.977Z,44.5
2024-04-06T10:46:46.973Z,44.9
2024-04-06T10:47:46.980Z,44.2
2024-04-06T10:48:46.962Z,44.3
2024-04-06T10:49:46.956Z,43.7
2024-04-06T10:50:46.979Z,43.7
2024-04-06T10:51:46.956Z,43.1
2024-04-06T10:52:46.996Z,43
2024-04-06T10:53:46.975Z,42.5
2024-04-06T10:54:46.982Z,42.1
2024-04-06T10:55:46.978Z,42.2
2024-04-06T10:56:46.977Z,41.6
2024-04-06T10:57:46.976Z,40.6
2024-04-06T10:58:46.978Z,39.7
2024-04-06T10:59:46.942Z,40.2
2024-04-06T11:00:46.977Z,39.9
2024-04-06T11:01:46.967Z,40.3
2024-04-06T11:02:46.953Z,39.3
2024-04-06T11:03:46.960Z,39.4
2024-04-06T11:04:46.952Z,39
2024-04-06T11:05:46.946Z,39.7
2024-04-06T11:06:46.978Z,39.2
2024-04-06T11:07:46.972Z,39
2024-04-06T11:08:46.938Z,38.7
2024-04-06T11:09:46.956Z,38.7
2024-04-06T11:10:46.971Z,38.9
2024-04-06T11:11:46.967Z,39
2024-04-06T11:12:46.957Z,38.3
2024-04-06T11:13:46.985Z,37.9
2024-04-06T11:14:46.956Z,36.5
2024-04-06T11:15:46.935Z,36.5
2024-04-06T11:16:46.962Z,35.5
2024-04-06T11:17:46.977Z,35.8
2024-04-06T11:18:47.008Z,35.8
2024-04-06T11:19:46.970Z,35.7
2024-04-06T11:20:46.985Z,36.3
2024-04-06T11:21:46.985Z,36.3
2024-04-06T11:22:46.977Z,34.4
2024-04-06T11:23:46.947Z,36.1
2024-04-06T11:24:46.968Z,34.4
2024-04-06T11:25:46.975Z,34.9
2024-04-06T11:26:46.970Z,34.4
2024-04-06T11:27:46.976Z,34.1
2024-04-06T11:28:46.979Z,33.5
2024-04-06T11:29:46.959Z,33
2024-04-06T11:30:46.955Z,33.1
2024-04-06T11:31:46.953Z,31.4
2024-04-06T11:32:46.961Z,33.3
2024-04-06T11:33:47.013Z,32.5
2024-04-06T11:34:46.963Z,31.4
2024-04-06T11:35:46.978Z,32.7
2024-04-06T11:36:46.957Z,30.9
2024-04-06T11:37:46.949Z,30.6
2024-04-06T11:38:46.955Z,29.4
2024-04-06T11:39:46.963Z,30.8
2024-04-06T11:40:46.983Z,30.1
2024-04-06T11:41:46.952Z,30.2
2024-04-06T11:42:46.957Z,29.4
2024-04-06T11:43:46.973Z,29.7
2024-04-06T11:44:46.989Z,29.5
2024-04-06T11:45:46.984Z,29.2
2024-04-06T11:46:46.982Z,29.8
2024-04-06T11:47:46.976Z,29.5
2024-04-06T11:48:46.950Z,28.4
2024-04-06T11:49:46.968Z,28.5
2024-04-06T11:50:46.948Z,27.8
2024-04-06T11:51:46.933Z,28.7
2024-04-06T11:52:46.958Z,28.1
2024-04-06T11:53:50.310Z,27.8
2024-04-06T11:54:46.922Z,27.3
2024-04-06T11:55:46.966Z,27.8
2024-04-06T11:56:46.988Z,27.7
2024-04-06T11:57:46.977Z,27.4
2024-04-06T11:58:46.976Z,27.1
2024-04-06T11:59:46.957Z,26.4
2024-04-06T12:00:46.961Z,26.2
2024-04-06T12:01:46.982Z,25.9
2024-04-06T12:02:46.962Z,25.5
2024-04-06T12:03:46.952Z,25.6
2024-04-06T12:04:46.958Z,24.6
2024-04-06T12:05:46.968Z,24.4
2024-04-06T12:06:46.977Z,24
2024-04-06T12:07:46.992Z,25
2024-04-06T12:08:46.973Z,24.9
2024-04-06T12:09:46.973Z,25
2024-04-06T12:10:47.006Z,24.9
2024-04-06T12:11:46.995Z,24.8
2024-04-06T12:12:46.985Z,24.5
2024-04-06T12:13:46.992Z,24.3
2024-04-06T12:14:46.986Z,23.8
2024-04-06T12:15:46.980Z,23.7
2024-04-06T12:16:46.985Z,23.5
2024-04-06T12:17:46.959Z,23.3
2024-04-06T12:18:46.928Z,23
2024-04-06T12:19:46.994Z,22.7
2024-04-06T12:20:46.978Z,22.2
2024-04-06T12:21:46.972Z,21.7
2024-04-06T12:22:46.976Z,21.5
2024-04-06T12:23:46.975Z,20.5
2024-04-06T12:24:46.956Z,21.6
2024-04-06T12:25:46.939Z,21.7
2024-04-06T12:26:46.958Z,21.2
2024-04-06T12:27:46.973Z,21.1
2024-04-06T12:28:46.952Z,20.8
2024-04-06T12:29:46.956Z,20.6
2024-04-06T12:30:46.951Z,20.4
2024-04-06T12:31:46.975Z,20.8
2024-04-06T12:32:46.954Z,20.5
2024-04-06T12:33:46.977Z,20.3
2024-04-06T12:34:46.974Z,20.1
2024-04-06T12:35:46.939Z,20
2024-04-06T12:36:46.977Z,19.6
2024-04-06T12:37:46.970Z,19.5
2024-04-06T12:38:46.979Z,19.4
2024-04-06T12:39:46.959Z,18.9
2024-04-06T12:40:46.940Z,18.7
2024-04-06T12:41:46.975Z,18.5
2024-04-06T12:42:46.922Z,18.5
2024-04-06T12:43:46.976Z,18.4
2024-04-06T12:44:46.942Z,18.3
2024-04-06T12:45:46.970Z,18.3
2024-04-06T12:46:46.986Z,18.1
2024-04-06T12:47:46.964Z,17.8
2024-04-06T12:48:46.936Z,17.6
2024-04-06T12:49:46.975Z,17.4
2024-04-06T12:50:46.957Z,17.1
2024-04-06T12:51:46.955Z,17
2024-04-06T12:52:46.979Z,16.8
2024-04-06T12:53:46.949Z,16.5
2024-04-06T12:54:46.959Z,16.5
2024-04-06T12:55:46.941Z,16.2
2024-04-06T12:56:49.744Z,15.8
2024-04-06T12:57:46.977Z,15.6
2024-04-06T12:58:46.971Z,15.4
2024-04-06T12:59:46.975Z,15.4
2024-04-06T13:00:46.981Z,15.5
2024-04-06T13:01:46.994Z,15.4
2024-04-06T13:02:46.953Z,15.3
2024-04-06T13:03:56.534Z,14.8
2024-04-06T13:04:46.971Z,14.5
2024-04-06T13:05:46.977Z,13.8
2024-04-06T13:06:46.948Z,13.3
2024-04-06T13:07:50.485Z,14.5
2024-04-06T13:08:46.975Z,14.2
2024-04-06T13:09:46.966Z,14.3
2024-04-06T13:10:46.967Z,13.9
2024-04-06T13:11:46.957Z,13.9
2024-04-06T13:12:46.972Z,14
2024-04-06T13:13:46.967Z,13.6
2024-04-06T13:14:46.976Z,13.4
2024-04-06T13:15:46.980Z,13.3
2024-04-06T13:16:46.975Z,13
2024-04-06T13:17:46.983Z,13
2024-04-06T13:18:46.974Z,13
2024-04-06T13:19:46.975Z,12.7
2024-04-06T13:20:46.981Z,12.9
2024-04-06T13:21:46.947Z,12.9
2024-04-06T13:22:46.968Z,12.8
2024-04-06T13:23:46.962Z,12.5
2024-04-06T13:24:46.957Z,12.1
2024-04-06T13:25:46.982Z,11.1
2024-04-06T13:26:46.980Z,12.3
2024-04-06T13:27:46.960Z,12.1
2024-04-06T13:28:46.960Z,12.3
2024-04-06T13:29:46.978Z,12.2
2024-04-06T13:30:46.972Z,12.1
2024-04-06T13:31:46.989Z,11.9
2024-04-06T13:32:46.962Z,12
2024-04-06T13:33:46.980Z,11.7
2024-04-06T13:34:46.941Z,11.6
2024-04-06T13:35:46.958Z,11.6
2024-04-06T13:36:46.965Z,11.5
2024-04-06T13:37:46.958Z,11.6
2024-04-06T13:38:46.975Z,11.5
2024-04-06T13:39:46.918Z,11.4
2024-04-06T13:40:46.969Z,11.3
2024-04-06T13:41:46.976Z,11.1
2024-04-06T13:42:46.978Z,11.1
2024-04-06T13:43:46.970Z,11.1
2024-04-06T13:44:46.973Z,11.1
2024-04-06T13:45:46.996Z,11
2024-04-06T13:46:46.918Z,11
2024-04-06T13:47:46.963Z,10.9
2024-04-06T13:48:46.984Z,10.5
2024-04-06T13:49:46.971Z,10.7
2024-04-06T13:50:46.974Z,10.7
2024-04-06T13:51:46.962Z,10.4
2024-04-06T13:52:46.982Z,10.7
2024-04-06T13:53:46.928Z,10.8
2024-04-06T13:54:46.960Z,10.5
2024-04-06T13:55:46.957Z,10.4
2024-04-06T13:56:46.955Z,10.3
2024-04-06T13:57:46.915Z,10.7
2024-04-06T13:58:46.967Z,10.7
2024-04-06T13:59:46.972Z,10.7